sensor_id;sensor_type;location;lat;lon;timestamp;P1;durP1;ratioP1;P2;durP2;ratioP2
14268;SDS011;7218;51.480;7.006;2023-02-10T00:00:55;35.25;;;22.08;;
14268;SDS011;7218;51.480;7.006;2023-02-10T00:03:22;31.75;;;22.17;;
14268;SDS011;7218;51.480;7.006;2023-02-10T00:05:48;36.95;;;23.58;;
14268;SDS011;7218;51.480;7.006;2023-02-10T00:08:14;35.67;;;23.65;;
14268;SDS011;7218;51.480;7.006;2023-02-10T00:10:41;33.65;;;23.13;;
14268;SDS011;7218;51.480;7.006;2023-02-10T00:13:08;34.33;;;22.15;;
14268;SDS011;7218;51.480;7.006;2023-02-10T00:15:36;38.30;;;24.10;;
14268;SDS011;7218;51.480;7.006;2023-02-10T00:18:05;35.13;;;23.63;;
14268;SDS011;7218;51.480;7.006;2023-02-10T00:20:32;36.58;;;23.60;;
14268;SDS011;7218;51.480;7.006;2023-02-10T00:22:59;38.65;;;23.42;;
14268;SDS011;7218;51.480;7.006;2023-02-10T00:25:26;37.30;;;24.05;;
14268;SDS011;7218;51.480;7.006;2023-02-10T00:27:52;35.60;;;23.20;;
14268;SDS011;7218;51.480;7.006;2023-02-10T00:30:19;35.72;;;24.25;;
14268;SDS011;7218;51.480;7.006;2023-02-10T00:32:46;37.72;;;24.20;;
14268;SDS011;7218;51.480;7.006;2023-02-10T00:35:14;35.00;;;23.88;;
14268;SDS011;7218;51.480;7.006;2023-02-10T00:37:40;40.50;;;24.63;;
14268;SDS011;7218;51.480;7.006;2023-02-10T00:40:07;38.45;;;24.27;;
14268;SDS011;7218;51.480;7.006;2023-02-10T00:42:34;40.40;;;24.83;;
14268;SDS011;7218;51.480;7.006;2023-02-10T00:45:00;41.08;;;25.98;;
14268;SDS011;7218;51.480;7.006;2023-02-10T00:47:27;38.13;;;25.42;;
14268;SDS011;7218;51.480;7.006;2023-02-10T00:49:53;39.60;;;25.45;;
14268;SDS011;7218;51.480;7.006;2023-02-10T00:52:21;39.95;;;25.48;;
14268;SDS011;7218;51.480;7.006;2023-02-10T00:54:48;42.78;;;25.50;;
14268;SDS011;7218;51.480;7.006;2023-02-10T00:57:15;39.00;;;26.20;;
14268;SDS011;7218;51.480;7.006;2023-02-10T00:59:41;43.28;;;26.15;;
14268;SDS011;7218;51.480;7.006;2023-02-10T01:02:08;40.17;;;25.35;;
14268;SDS011;7218;51.480;7.006;2023-02-10T01:04:34;45.25;;;25.83;;
14268;SDS011;7218;51.480;7.006;2023-02-10T01:07:02;44.47;;;25.85;;
14268;SDS011;7218;51.480;7.006;2023-02-10T01:09:30;42.95;;;25.80;;
14268;SDS011;7218;51.480;7.006;2023-02-10T01:11:56;40.08;;;26.08;;
14268;SDS011;7218;51.480;7.006;2023-02-10T01:14:23;40.28;;;26.52;;
14268;SDS011;7218;51.480;7.006;2023-02-10T01:16:50;44.15;;;26.27;;
14268;SDS011;7218;51.480;7.006;2023-02-10T01:19:17;42.22;;;27.13;;
14268;SDS011;7218;51.480;7.006;2023-02-10T01:21:43;43.03;;;26.67;;
14268;SDS011;7218;51.480;7.006;2023-02-10T01:24:10;42.20;;;27.30;;
14268;SDS011;7218;51.480;7.006;2023-02-10T01:26:37;44.20;;;26.20;;
14268;SDS011;7218;51.480;7.006;2023-02-10T01:29:04;46.13;;;26.35;;
14268;SDS011;7218;51.480;7.006;2023-02-10T01:31:31;43.75;;;27.27;;
14268;SDS011;7218;51.480;7.006;2023-02-10T01:33:57;41.28;;;26.75;;
14268;SDS011;7218;51.480;7.006;2023-02-10T01:36:24;41.85;;;27.02;;
14268;SDS011;7218;51.480;7.006;2023-02-10T01:38:51;43.97;;;27.63;;
14268;SDS011;7218;51.480;7.006;2023-02-10T01:41:19;44.55;;;28.02;;
14268;SDS011;7218;51.480;7.006;2023-02-10T01:43:56;41.47;;;26.80;;
14268;SDS011;7218;51.480;7.006;2023-02-10T01:46:25;41.95;;;26.23;;
14268;SDS011;7218;51.480;7.006;2023-02-10T01:48:52;46.92;;;28.17;;
14268;SDS011;7218;51.480;7.006;2023-02-10T01:51:22;51.05;;;27.60;;
14268;SDS011;7218;51.480;7.006;2023-02-10T01:53:51;47.75;;;28.08;;
14268;SDS011;7218;51.480;7.006;2023-02-10T01:56:18;43.17;;;27.10;;
14268;SDS011;7218;51.480;7.006;2023-02-10T01:58:45;45.05;;;28.17;;
14268;SDS011;7218;51.480;7.006;2023-02-10T02:01:13;41.92;;;27.40;;
14268;SDS011;7218;51.480;7.006;2023-02-10T02:03:40;44.20;;;27.70;;
14268;SDS011;7218;51.480;7.006;2023-02-10T02:06:07;41.67;;;27.70;;
14268;SDS011;7218;51.480;7.006;2023-02-10T02:08:33;41.95;;;28.17;;
14268;SDS011;7218;51.480;7.006;2023-02-10T02:11:03;43.35;;;28.13;;
14268;SDS011;7218;51.480;7.006;2023-02-10T02:13:47;45.97;;;28.42;;
14268;SDS011;7218;51.480;7.006;2023-02-10T02:16:29;47.30;;;28.95;;
14268;SDS011;7218;51.480;7.006;2023-02-10T02:19:06;45.15;;;28.08;;
14268;SDS011;7218;51.480;7.006;2023-02-10T02:21:57;44.20;;;28.10;;
14268;SDS011;7218;51.480;7.006;2023-02-10T02:27:59;46.42;;;28.55;;
14268;SDS011;7218;51.480;7.006;2023-02-10T02:30:52;45.53;;;28.13;;
14268;SDS011;7218;51.480;7.006;2023-02-10T02:33:35;45.33;;;29.17;;
14268;SDS011;7218;51.480;7.006;2023-02-10T02:36:06;50.80;;;29.30;;
14268;SDS011;7218;51.480;7.006;2023-02-10T02:38:37;49.65;;;30.02;;
14268;SDS011;7218;51.480;7.006;2023-02-10T02:41:04;49.42;;;30.08;;
14268;SDS011;7218;51.480;7.006;2023-02-10T02:43:31;50.83;;;30.08;;
14268;SDS011;7218;51.480;7.006;2023-02-10T02:45:58;47.50;;;28.77;;
14268;SDS011;7218;51.480;7.006;2023-02-10T02:48:35;49.30;;;29.45;;
14268;SDS011;7218;51.480;7.006;2023-02-10T02:51:14;46.78;;;29.60;;
14268;SDS011;7218;51.480;7.006;2023-02-10T02:53:52;49.22;;;30.10;;
14268;SDS011;7218;51.480;7.006;2023-02-10T02:56:28;47.20;;;29.02;;
14268;SDS011;7218;51.480;7.006;2023-02-10T02:59:03;44.83;;;27.75;;
14268;SDS011;7218;51.480;7.006;2023-02-10T03:01:35;48.80;;;29.67;;
14268;SDS011;7218;51.480;7.006;2023-02-10T03:04:07;48.33;;;29.23;;
14268;SDS011;7218;51.480;7.006;2023-02-10T03:06:36;49.60;;;29.65;;
14268;SDS011;7218;51.480;7.006;2023-02-10T03:09:03;50.40;;;29.02;;
14268;SDS011;7218;51.480;7.006;2023-02-10T03:11:29;48.25;;;29.48;;
14268;SDS011;7218;51.480;7.006;2023-02-10T03:13:56;47.30;;;29.38;;
14268;SDS011;7218;51.480;7.006;2023-02-10T03:16:22;48.63;;;29.73;;
14268;SDS011;7218;51.480;7.006;2023-02-10T03:18:49;46.08;;;29.35;;
14268;SDS011;7218;51.480;7.006;2023-02-10T03:21:16;49.65;;;30.10;;
14268;SDS011;7218;51.480;7.006;2023-02-10T03:23:43;45.67;;;30.10;;
14268;SDS011;7218;51.480;7.006;2023-02-10T03:26:10;47.25;;;29.45;;
14268;SDS011;7218;51.480;7.006;2023-02-10T03:28:37;47.50;;;30.42;;
14268;SDS011;7218;51.480;7.006;2023-02-10T03:31:04;47.45;;;28.70;;
14268;SDS011;7218;51.480;7.006;2023-02-10T03:33:32;46.33;;;29.58;;
14268;SDS011;7218;51.480;7.006;2023-02-10T03:35:59;51.45;;;30.85;;
14268;SDS011;7218;51.480;7.006;2023-02-10T03:38:29;54.78;;;31.25;;
14268;SDS011;7218;51.480;7.006;2023-02-10T03:40:55;47.05;;;29.13;;
14268;SDS011;7218;51.480;7.006;2023-02-10T03:43:24;51.08;;;30.27;;
14268;SDS011;7218;51.480;7.006;2023-02-10T03:45:50;49.03;;;29.02;;
14268;SDS011;7218;51.480;7.006;2023-02-10T03:48:17;50.85;;;29.77;;
14268;SDS011;7218;51.480;7.006;2023-02-10T03:50:43;47.28;;;30.05;;
14268;SDS011;7218;51.480;7.006;2023-02-10T03:53:10;54.63;;;30.65;;
14268;SDS011;7218;51.480;7.006;2023-02-10T03:55:38;46.92;;;30.20;;
14268;SDS011;7218;51.480;7.006;2023-02-10T03:58:05;48.45;;;29.90;;
14268;SDS011;7218;51.480;7.006;2023-02-10T04:00:31;48.17;;;30.60;;
14268;SDS011;7218;51.480;7.006;2023-02-10T04:02:58;49.20;;;30.17;;
14268;SDS011;7218;51.480;7.006;2023-02-10T04:05:24;53.05;;;30.83;;
14268;SDS011;7218;51.480;7.006;2023-02-10T04:07:51;50.20;;;30.73;;
14268;SDS011;7218;51.480;7.006;2023-02-10T04:10:17;50.33;;;30.55;;
14268;SDS011;7218;51.480;7.006;2023-02-10T04:12:46;49.08;;;30.70;;
14268;SDS011;7218;51.480;7.006;2023-02-10T04:15:13;49.60;;;30.70;;
14268;SDS011;7218;51.480;7.006;2023-02-10T04:17:40;49.03;;;29.80;;
14268;SDS011;7218;51.480;7.006;2023-02-10T04:20:06;47.78;;;30.08;;
14268;SDS011;7218;51.480;7.006;2023-02-10T04:22:33;54.50;;;30.58;;
14268;SDS011;7218;51.480;7.006;2023-02-10T04:25:00;50.58;;;30.38;;
14268;SDS011;7218;51.480;7.006;2023-02-10T04:27:26;52.47;;;31.38;;
14268;SDS011;7218;51.480;7.006;2023-02-10T04:29:54;47.25;;;29.92;;
14268;SDS011;7218;51.480;7.006;2023-02-10T04:32:21;46.58;;;29.55;;
14268;SDS011;7218;51.480;7.006;2023-02-10T04:34:47;44.80;;;29.17;;
14268;SDS011;7218;51.480;7.006;2023-02-10T04:37:14;48.58;;;31.02;;
14268;SDS011;7218;51.480;7.006;2023-02-10T04:39:40;47.15;;;29.70;;
14268;SDS011;7218;51.480;7.006;2023-02-10T04:42:07;47.83;;;30.45;;
14268;SDS011;7218;51.480;7.006;2023-02-10T04:44:33;47.97;;;29.75;;
14268;SDS011;7218;51.480;7.006;2023-02-10T04:47:01;50.08;;;30.65;;
14268;SDS011;7218;51.480;7.006;2023-02-10T04:49:28;48.97;;;29.42;;
14268;SDS011;7218;51.480;7.006;2023-02-10T04:51:54;53.92;;;30.60;;
14268;SDS011;7218;51.480;7.006;2023-02-10T04:54:21;49.80;;;30.00;;
14268;SDS011;7218;51.480;7.006;2023-02-10T04:56:47;47.97;;;29.73;;
14268;SDS011;7218;51.480;7.006;2023-02-10T04:59:14;50.40;;;29.67;;
14268;SDS011;7218;51.480;7.006;2023-02-10T05:01:40;52.10;;;30.80;;
14268;SDS011;7218;51.480;7.006;2023-02-10T05:04:08;48.67;;;30.90;;
14268;SDS011;7218;51.480;7.006;2023-02-10T05:06:34;51.00;;;30.48;;
14268;SDS011;7218;51.480;7.006;2023-02-10T05:09:02;48.65;;;30.08;;
14268;SDS011;7218;51.480;7.006;2023-02-10T05:11:28;51.20;;;30.95;;
14268;SDS011;7218;51.480;7.006;2023-02-10T05:13:55;53.60;;;30.77;;
14268;SDS011;7218;51.480;7.006;2023-02-10T05:16:21;52.67;;;31.13;;
14268;SDS011;7218;51.480;7.006;2023-02-10T05:18:48;53.30;;;31.00;;
14268;SDS011;7218;51.480;7.006;2023-02-10T05:21:16;52.10;;;31.95;;
14268;SDS011;7218;51.480;7.006;2023-02-10T05:23:42;48.67;;;29.73;;
14268;SDS011;7218;51.480;7.006;2023-02-10T05:26:08;48.72;;;30.08;;
14268;SDS011;7218;51.480;7.006;2023-02-10T05:28:35;50.63;;;29.75;;
14268;SDS011;7218;51.480;7.006;2023-02-10T05:31:02;49.47;;;30.42;;
14268;SDS011;7218;51.480;7.006;2023-02-10T05:33:31;52.03;;;31.00;;
14268;SDS011;7218;51.480;7.006;2023-02-10T05:35:59;53.60;;;31.02;;
14268;SDS011;7218;51.480;7.006;2023-02-10T05:38:27;49.35;;;30.15;;
14268;SDS011;7218;51.480;7.006;2023-02-10T05:40:53;50.38;;;30.50;;
14268;SDS011;7218;51.480;7.006;2023-02-10T05:43:20;53.03;;;30.80;;
14268;SDS011;7218;51.480;7.006;2023-02-10T05:45:46;47.40;;;30.27;;
14268;SDS011;7218;51.480;7.006;2023-02-10T05:48:13;49.72;;;30.70;;
14268;SDS011;7218;51.480;7.006;2023-02-10T05:50:39;48.40;;;29.65;;
14268;SDS011;7218;51.480;7.006;2023-02-10T05:53:06;53.67;;;31.38;;
14268;SDS011;7218;51.480;7.006;2023-02-10T05:55:35;50.40;;;30.10;;
14268;SDS011;7218;51.480;7.006;2023-02-10T05:58:01;52.78;;;31.33;;
14268;SDS011;7218;51.480;7.006;2023-02-10T06:00:28;48.75;;;31.15;;
14268;SDS011;7218;51.480;7.006;2023-02-10T06:02:54;53.38;;;30.63;;
14268;SDS011;7218;51.480;7.006;2023-02-10T06:05:21;49.38;;;30.67;;
14268;SDS011;7218;51.480;7.006;2023-02-10T06:07:47;55.13;;;31.80;;
14268;SDS011;7218;51.480;7.006;2023-02-10T06:10:14;51.83;;;31.48;;
14268;SDS011;7218;51.480;7.006;2023-02-10T06:12:42;52.63;;;31.40;;
14268;SDS011;7218;51.480;7.006;2023-02-10T06:15:08;50.15;;;30.42;;
14268;SDS011;7218;51.480;7.006;2023-02-10T06:17:35;52.85;;;31.10;;
14268;SDS011;7218;51.480;7.006;2023-02-10T06:20:01;50.80;;;30.42;;
14268;SDS011;7218;51.480;7.006;2023-02-10T06:22:28;51.53;;;31.75;;
14268;SDS011;7218;51.480;7.006;2023-02-10T06:24:54;50.58;;;30.65;;
14268;SDS011;7218;51.480;7.006;2023-02-10T06:27:21;52.65;;;31.30;;
14268;SDS011;7218;51.480;7.006;2023-02-10T06:29:49;56.25;;;31.30;;
14268;SDS011;7218;51.480;7.006;2023-02-10T06:32:15;52.65;;;31.20;;
14268;SDS011;7218;51.480;7.006;2023-02-10T06:34:42;53.30;;;31.02;;
14268;SDS011;7218;51.480;7.006;2023-02-10T06:37:10;57.03;;;32.63;;
14268;SDS011;7218;51.480;7.006;2023-02-10T06:39:37;52.38;;;32.08;;
14268;SDS011;7218;51.480;7.006;2023-02-10T06:42:03;48.85;;;30.10;;
14268;SDS011;7218;51.480;7.006;2023-02-10T06:44:30;49.13;;;31.73;;
14268;SDS011;7218;51.480;7.006;2023-02-10T06:46:58;53.47;;;31.30;;
14268;SDS011;7218;51.480;7.006;2023-02-10T06:49:24;50.60;;;31.95;;
14268;SDS011;7218;51.480;7.006;2023-02-10T06:51:51;53.88;;;31.55;;
14268;SDS011;7218;51.480;7.006;2023-02-10T06:54:17;51.88;;;31.30;;
14268;SDS011;7218;51.480;7.006;2023-02-10T06:56:44;56.88;;;32.05;;
14268;SDS011;7218;51.480;7.006;2023-02-10T06:59:12;54.25;;;30.83;;
14268;SDS011;7218;51.480;7.006;2023-02-10T07:01:39;52.65;;;30.58;;
14268;SDS011;7218;51.480;7.006;2023-02-10T07:04:07;47.72;;;30.25;;
14268;SDS011;7218;51.480;7.006;2023-02-10T07:06:34;47.00;;;28.48;;
14268;SDS011;7218;51.480;7.006;2023-02-10T07:09:00;50.17;;;30.88;;
14268;SDS011;7218;51.480;7.006;2023-02-10T07:11:29;51.58;;;30.58;;
14268;SDS011;7218;51.480;7.006;2023-02-10T07:13:55;53.00;;;31.60;;
14268;SDS011;7218;51.480;7.006;2023-02-10T07:16:22;50.30;;;31.38;;
14268;SDS011;7218;51.480;7.006;2023-02-10T07:18:48;54.50;;;31.40;;
14268;SDS011;7218;51.480;7.006;2023-02-10T07:21:16;48.70;;;29.60;;
14268;SDS011;7218;51.480;7.006;2023-02-10T07:23:43;49.90;;;30.33;;
14268;SDS011;7218;51.480;7.006;2023-02-10T07:26:09;54.35;;;30.27;;
14268;SDS011;7218;51.480;7.006;2023-02-10T07:28:37;49.63;;;29.55;;
14268;SDS011;7218;51.480;7.006;2023-02-10T07:31:04;51.20;;;31.13;;
14268;SDS011;7218;51.480;7.006;2023-02-10T07:33:31;48.95;;;30.95;;
14268;SDS011;7218;51.480;7.006;2023-02-10T07:35:58;53.67;;;31.17;;
14268;SDS011;7218;51.480;7.006;2023-02-10T07:38:27;51.50;;;30.80;;
14268;SDS011;7218;51.480;7.006;2023-02-10T07:40:54;51.75;;;31.63;;
14268;SDS011;7218;51.480;7.006;2023-02-10T07:43:20;54.08;;;31.75;;
14268;SDS011;7218;51.480;7.006;2023-02-10T07:45:47;53.60;;;31.48;;
14268;SDS011;7218;51.480;7.006;2023-02-10T07:48:15;51.50;;;30.02;;
14268;SDS011;7218;51.480;7.006;2023-02-10T07:50:42;52.15;;;31.55;;
14268;SDS011;7218;51.480;7.006;2023-02-10T07:53:09;51.78;;;31.83;;
14268;SDS011;7218;51.480;7.006;2023-02-10T07:55:37;55.55;;;31.52;;
14268;SDS011;7218;51.480;7.006;2023-02-10T07:58:04;52.58;;;31.35;;
14268;SDS011;7218;51.480;7.006;2023-02-10T08:00:31;52.35;;;31.83;;
14268;SDS011;7218;51.480;7.006;2023-02-10T08:02:57;51.80;;;32.05;;
14268;SDS011;7218;51.480;7.006;2023-02-10T08:05:24;53.75;;;32.00;;
14268;SDS011;7218;51.480;7.006;2023-02-10T08:07:51;52.20;;;31.92;;
14268;SDS011;7218;51.480;7.006;2023-02-10T08:10:18;59.03;;;32.10;;
14268;SDS011;7218;51.480;7.006;2023-02-10T08:12:46;52.83;;;31.80;;
14268;SDS011;7218;51.480;7.006;2023-02-10T08:15:13;54.83;;;31.60;;
14268;SDS011;7218;51.480;7.006;2023-02-10T08:17:42;54.95;;;32.47;;
14268;SDS011;7218;51.480;7.006;2023-02-10T08:20:09;54.17;;;32.63;;
14268;SDS011;7218;51.480;7.006;2023-02-10T08:22:36;54.10;;;32.42;;
14268;SDS011;7218;51.480;7.006;2023-02-10T08:25:03;57.58;;;33.97;;
14268;SDS011;7218;51.480;7.006;2023-02-10T08:27:30;51.40;;;32.20;;
14268;SDS011;7218;51.480;7.006;2023-02-10T08:29:58;55.05;;;32.03;;
14268;SDS011;7218;51.480;7.006;2023-02-10T08:32:24;53.13;;;31.60;;
14268;SDS011;7218;51.480;7.006;2023-02-10T08:34:51;51.53;;;31.63;;
14268;SDS011;7218;51.480;7.006;2023-02-10T08:37:17;49.92;;;30.60;;
14268;SDS011;7218;51.480;7.006;2023-02-10T08:39:44;50.95;;;30.67;;
14268;SDS011;7218;51.480;7.006;2023-02-10T08:42:11;54.10;;;32.55;;
14268;SDS011;7218;51.480;7.006;2023-02-10T08:44:37;51.78;;;30.98;;
14268;SDS011;7218;51.480;7.006;2023-02-10T08:47:05;49.35;;;31.00;;
14268;SDS011;7218;51.480;7.006;2023-02-10T08:49:36;50.50;;;30.48;;
14268;SDS011;7218;51.480;7.006;2023-02-10T08:52:02;52.22;;;30.33;;
14268;SDS011;7218;51.480;7.006;2023-02-10T08:54:30;53.42;;;31.52;;
14268;SDS011;7218;51.480;7.006;2023-02-10T08:56:56;48.78;;;30.55;;
14268;SDS011;7218;51.480;7.006;2023-02-10T08:59:22;54.35;;;30.30;;
14268;SDS011;7218;51.480;7.006;2023-02-10T09:01:49;47.30;;;30.15;;
14268;SDS011;7218;51.480;7.006;2023-02-10T09:04:18;49.10;;;30.52;;
14268;SDS011;7218;51.480;7.006;2023-02-10T09:06:45;48.63;;;29.90;;
14268;SDS011;7218;51.480;7.006;2023-02-10T09:09:12;55.03;;;30.40;;
14268;SDS011;7218;51.480;7.006;2023-02-10T09:11:41;52.67;;;30.35;;
14268;SDS011;7218;51.480;7.006;2023-02-10T09:14:08;54.85;;;32.30;;
14268;SDS011;7218;51.480;7.006;2023-02-10T09:16:35;49.35;;;31.25;;
14268;SDS011;7218;51.480;7.006;2023-02-10T09:19:01;55.55;;;32.38;;
14268;SDS011;7218;51.480;7.006;2023-02-10T09:21:30;50.90;;;31.00;;
14268;SDS011;7218;51.480;7.006;2023-02-10T09:23:57;54.30;;;28.73;;
14268;SDS011;7218;51.480;7.006;2023-02-10T09:26:24;55.28;;;32.53;;
14268;SDS011;7218;51.480;7.006;2023-02-10T09:28:50;50.60;;;32.30;;
14268;SDS011;7218;51.480;7.006;2023-02-10T09:31:17;52.28;;;31.45;;
14268;SDS011;7218;51.480;7.006;2023-02-10T09:33:44;54.08;;;30.80;;
14268;SDS011;7218;51.480;7.006;2023-02-10T09:36:12;45.25;;;26.95;;
14268;SDS011;7218;51.480;7.006;2023-02-10T09:38:41;55.33;;;34.15;;
14268;SDS011;7218;51.480;7.006;2023-02-10T09:41:11;54.90;;;32.53;;
14268;SDS011;7218;51.480;7.006;2023-02-10T09:43:50;52.67;;;32.58;;
14268;SDS011;7218;51.480;7.006;2023-02-10T09:46:30;51.50;;;31.83;;
14268;SDS011;7218;51.480;7.006;2023-02-10T09:49:09;56.33;;;32.10;;
14268;SDS011;7218;51.480;7.006;2023-02-10T09:51:46;52.35;;;32.67;;
14268;SDS011;7218;51.480;7.006;2023-02-10T09:54:23;54.42;;;30.65;;
14268;SDS011;7218;51.480;7.006;2023-02-10T09:56:56;50.92;;;30.45;;
14268;SDS011;7218;51.480;7.006;2023-02-10T09:59:23;49.47;;;32.08;;
14268;SDS011;7218;51.480;7.006;2023-02-10T10:01:51;56.53;;;31.73;;
14268;SDS011;7218;51.480;7.006;2023-02-10T10:04:21;53.03;;;32.35;;
14268;SDS011;7218;51.480;7.006;2023-02-10T10:06:49;51.35;;;31.95;;
14268;SDS011;7218;51.480;7.006;2023-02-10T10:09:21;49.03;;;31.05;;
14268;SDS011;7218;51.480;7.006;2023-02-10T10:11:58;50.13;;;30.55;;
14268;SDS011;7218;51.480;7.006;2023-02-10T10:14:26;52.38;;;33.38;;
14268;SDS011;7218;51.480;7.006;2023-02-10T10:17:02;51.58;;;32.40;;
14268;SDS011;7218;51.480;7.006;2023-02-10T10:19:39;50.67;;;31.38;;
14268;SDS011;7218;51.480;7.006;2023-02-10T10:22:20;49.63;;;31.10;;
14268;SDS011;7218;51.480;7.006;2023-02-10T10:25:02;45.92;;;31.23;;
14268;SDS011;7218;51.480;7.006;2023-02-10T10:27:50;47.95;;;32.13;;
14268;SDS011;7218;51.480;7.006;2023-02-10T10:30:28;50.50;;;33.10;;
14268;SDS011;7218;51.480;7.006;2023-02-10T10:33:05;52.75;;;33.58;;
14268;SDS011;7218;51.480;7.006;2023-02-10T10:35:45;48.63;;;29.85;;
14268;SDS011;7218;51.480;7.006;2023-02-10T10:38:11;44.05;;;29.50;;
14268;SDS011;7218;51.480;7.006;2023-02-10T10:40:40;45.30;;;31.48;;
14268;SDS011;7218;51.480;7.006;2023-02-10T10:43:12;47.58;;;31.48;;
14268;SDS011;7218;51.480;7.006;2023-02-10T10:45:44;50.15;;;32.78;;
14268;SDS011;7218;51.480;7.006;2023-02-10T10:48:14;53.55;;;33.85;;
14268;SDS011;7218;51.480;7.006;2023-02-10T10:50:42;60.75;;;36.42;;
14268;SDS011;7218;51.480;7.006;2023-02-10T10:53:12;61.63;;;38.00;;
14268;SDS011;7218;51.480;7.006;2023-02-10T10:55:43;58.28;;;36.25;;
14268;SDS011;7218;51.480;7.006;2023-02-10T10:58:18;58.20;;;35.47;;
14268;SDS011;7218;51.480;7.006;2023-02-10T11:00:51;59.95;;;35.63;;
14268;SDS011;7218;51.480;7.006;2023-02-10T11:03:19;49.60;;;32.55;;
14268;SDS011;7218;51.480;7.006;2023-02-10T11:05:55;48.63;;;31.98;;
14268;SDS011;7218;51.480;7.006;2023-02-10T11:08:26;48.75;;;30.52;;
14268;SDS011;7218;51.480;7.006;2023-02-10T11:10:56;49.58;;;30.70;;
14268;SDS011;7218;51.480;7.006;2023-02-10T11:13:26;47.22;;;30.70;;
14268;SDS011;7218;51.480;7.006;2023-02-10T11:15:59;48.63;;;30.20;;
14268;SDS011;7218;51.480;7.006;2023-02-10T11:18:29;46.25;;;29.85;;
14268;SDS011;7218;51.480;7.006;2023-02-10T11:20:56;45.13;;;29.90;;
14268;SDS011;7218;51.480;7.006;2023-02-10T11:23:25;47.60;;;30.58;;
14268;SDS011;7218;51.480;7.006;2023-02-10T11:25:57;45.55;;;29.23;;
14268;SDS011;7218;51.480;7.006;2023-02-10T11:28:27;45.92;;;28.38;;
14268;SDS011;7218;51.480;7.006;2023-02-10T11:30:57;46.25;;;29.20;;
14268;SDS011;7218;51.480;7.006;2023-02-10T11:33:27;44.58;;;28.45;;
14268;SDS011;7218;51.480;7.006;2023-02-10T11:35:57;43.03;;;27.55;;
14268;SDS011;7218;51.480;7.006;2023-02-10T11:38:28;43.08;;;28.02;;
14268;SDS011;7218;51.480;7.006;2023-02-10T11:40:55;45.03;;;28.75;;
14268;SDS011;7218;51.480;7.006;2023-02-10T11:43:27;43.72;;;27.77;;
14268;SDS011;7218;51.480;7.006;2023-02-10T11:45:56;38.75;;;24.95;;
14268;SDS011;7218;51.480;7.006;2023-02-10T11:48:26;40.55;;;25.77;;
14268;SDS011;7218;51.480;7.006;2023-02-10T11:51:00;40.78;;;24.17;;
14268;SDS011;7218;51.480;7.006;2023-02-10T11:53:28;37.83;;;23.65;;
14268;SDS011;7218;51.480;7.006;2023-02-10T11:55:58;36.20;;;22.92;;
14268;SDS011;7218;51.480;7.006;2023-02-10T12:04:24;37.72;;;23.45;;
14268;SDS011;7218;51.480;7.006;2023-02-10T12:07:06;40.38;;;24.13;;
14268;SDS011;7218;51.480;7.006;2023-02-10T12:09:42;38.60;;;23.95;;
14268;SDS011;7218;51.480;7.006;2023-02-10T12:12:19;36.47;;;23.48;;
14268;SDS011;7218;51.480;7.006;2023-02-10T12:14:56;35.63;;;21.50;;
14268;SDS011;7218;51.480;7.006;2023-02-10T12:17:26;34.95;;;21.92;;
14268;SDS011;7218;51.480;7.006;2023-02-10T12:20:12;36.28;;;21.58;;
14268;SDS011;7218;51.480;7.006;2023-02-10T12:22:59;32.38;;;21.00;;
14268;SDS011;7218;51.480;7.006;2023-02-10T12:25:36;32.42;;;20.77;;
14268;SDS011;7218;51.480;7.006;2023-02-10T12:28:14;30.95;;;19.38;;
14268;SDS011;7218;51.480;7.006;2023-02-10T12:30:53;29.08;;;19.27;;
14268;SDS011;7218;51.480;7.006;2023-02-10T12:33:31;29.63;;;19.65;;
14268;SDS011;7218;51.480;7.006;2023-02-10T12:36:09;30.15;;;18.35;;
14268;SDS011;7218;51.480;7.006;2023-02-10T12:38:50;27.88;;;17.67;;
14268;SDS011;7218;51.480;7.006;2023-02-10T12:41:24;28.10;;;18.08;;
14268;SDS011;7218;51.480;7.006;2023-02-10T12:44:08;28.17;;;18.08;;
14268;SDS011;7218;51.480;7.006;2023-02-10T12:46:49;28.58;;;17.75;;
14268;SDS011;7218;51.480;7.006;2023-02-10T12:49:34;27.05;;;17.52;;
14268;SDS011;7218;51.480;7.006;2023-02-10T12:52:12;29.23;;;16.95;;
14268;SDS011;7218;51.480;7.006;2023-02-10T12:54:46;21.83;;;14.35;;
14268;SDS011;7218;51.480;7.006;2023-02-10T12:57:17;23.88;;;15.13;;
14268;SDS011;7218;51.480;7.006;2023-02-10T12:59:52;27.20;;;14.95;;
14268;SDS011;7218;51.480;7.006;2023-02-10T13:02:26;28.80;;;15.90;;
14268;SDS011;7218;51.480;7.006;2023-02-10T13:05:01;24.27;;;14.77;;
14268;SDS011;7218;51.480;7.006;2023-02-10T13:07:35;25.52;;;14.77;;
14268;SDS011;7218;51.480;7.006;2023-02-10T13:10:13;27.88;;;14.43;;
14268;SDS011;7218;51.480;7.006;2023-02-10T13:12:45;18.35;;;11.20;;
14268;SDS011;7218;51.480;7.006;2023-02-10T13:15:15;17.85;;;10.68;;
14268;SDS011;7218;51.480;7.006;2023-02-10T13:17:48;22.73;;;13.02;;
14268;SDS011;7218;51.480;7.006;2023-02-10T13:20:22;20.70;;;12.27;;
14268;SDS011;7218;51.480;7.006;2023-02-10T13:22:59;21.58;;;11.70;;
14268;SDS011;7218;51.480;7.006;2023-02-10T13:25:34;19.45;;;11.43;;
14268;SDS011;7218;51.480;7.006;2023-02-10T13:28:15;18.67;;;11.55;;
14268;SDS011;7218;51.480;7.006;2023-02-10T13:31:03;22.83;;;12.23;;
14268;SDS011;7218;51.480;7.006;2023-02-10T13:33:42;19.05;;;11.35;;
14268;SDS011;7218;51.480;7.006;2023-02-10T13:36:15;17.58;;;11.35;;
14268;SDS011;7218;51.480;7.006;2023-02-10T13:38:56;22.33;;;12.27;;
14268;SDS011;7218;51.480;7.006;2023-02-10T13:41:26;19.17;;;12.25;;
14268;SDS011;7218;51.480;7.006;2023-02-10T13:47:14;18.60;;;10.88;;
14268;SDS011;7218;51.480;7.006;2023-02-10T13:49:52;24.63;;;12.05;;
14268;SDS011;7218;51.480;7.006;2023-02-10T13:52:23;20.27;;;11.98;;
14268;SDS011;7218;51.480;7.006;2023-02-10T13:54:56;21.25;;;11.93;;
14268;SDS011;7218;51.480;7.006;2023-02-10T13:57:28;23.27;;;13.07;;
14268;SDS011;7218;51.480;7.006;2023-02-10T14:00:16;20.25;;;12.93;;
14268;SDS011;7218;51.480;7.006;2023-02-10T14:02:58;21.42;;;12.90;;
14268;SDS011;7218;51.480;7.006;2023-02-10T14:05:28;21.23;;;12.90;;
14268;SDS011;7218;51.480;7.006;2023-02-10T14:07:55;22.60;;;13.77;;
14268;SDS011;7218;51.480;7.006;2023-02-10T14:10:32;23.98;;;15.10;;
14268;SDS011;7218;51.480;7.006;2023-02-10T14:13:01;27.60;;;15.50;;
14268;SDS011;7218;51.480;7.006;2023-02-10T14:15:34;23.42;;;15.25;;
14268;SDS011;7218;51.480;7.006;2023-02-10T14:18:06;27.08;;;16.27;;
14268;SDS011;7218;51.480;7.006;2023-02-10T14:20:54;26.40;;;16.48;;
14268;SDS011;7218;51.480;7.006;2023-02-10T14:23:21;28.13;;;16.10;;
14268;SDS011;7218;51.480;7.006;2023-02-10T14:25:53;23.40;;;15.60;;
14268;SDS011;7218;51.480;7.006;2023-02-10T14:28:23;25.40;;;16.00;;
14268;SDS011;7218;51.480;7.006;2023-02-10T14:30:54;27.88;;;16.98;;
14268;SDS011;7218;51.480;7.006;2023-02-10T14:33:25;25.15;;;16.40;;
14268;SDS011;7218;51.480;7.006;2023-02-10T14:35:54;28.52;;;16.73;;
14268;SDS011;7218;51.480;7.006;2023-02-10T14:38:23;28.02;;;17.52;;
14268;SDS011;7218;51.480;7.006;2023-02-10T14:40:52;27.35;;;16.50;;
14268;SDS011;7218;51.480;7.006;2023-02-10T14:43:21;27.83;;;16.25;;
14268;SDS011;7218;51.480;7.006;2023-02-10T14:45:50;22.88;;;15.15;;
14268;SDS011;7218;51.480;7.006;2023-02-10T14:48:18;25.92;;;14.73;;
14268;SDS011;7218;51.480;7.006;2023-02-10T14:50:57;25.55;;;16.25;;
14268;SDS011;7218;51.480;7.006;2023-02-10T14:53:25;26.55;;;15.60;;
14268;SDS011;7218;51.480;7.006;2023-02-10T14:55:52;24.88;;;16.15;;
14268;SDS011;7218;51.480;7.006;2023-02-10T14:58:19;26.83;;;16.30;;
14268;SDS011;7218;51.480;7.006;2023-02-10T15:00:52;24.08;;;15.90;;